Grand Junction Regional Airport

Airport
ICAO code: 
KGJT
Summary
ICAO Region: 
NAM
Territory: 
Location: 
Grand Junction Regional Airport,
Elevation: 
4858 ft
Coordinates: 
Aerial View: 
39° 7' 20.112" N, 108° 31' 44.131" W
Airport RE: 
Hot and High Operations
Metar
Observation
KGJT 021353Z 10003KT 10SM CLR M02/M06 A3029 RMK AO2 SLP265 T10171061
Station
Grand Junction, Walker Field
Date/Time
2021-12-02 13:53:00
Wind direction
100°
Wind speed
03 kts
Lowest cloud amount
n/a
Temperature
-1.7°C
Dew point
-6.1°C
Humidity
71%
Weather condition
n/a

Description

Grand Junction Regional Airport is a public-use airport located 6 km northeast of the central business district of Grand Junction, a city in Mesa County. It is the largest airport in western Colorado.

Climatology

Cold Semi-arid climate (Köppen climate classification BSk). - Hot, sometimes extremely hot summers and cold, sometimes very cold winters. Some snowfall during the winter. Areas featuring cold semi-arid climates are sometimes subject to major temperature swings during a 24 hour period.

Runways

Designator Length Width Surface Rops
4/22 1677 23 ASP Yes/Yes
11/29 3201 46 ASP Yes/Yes
Airport map: 
Aerial View: 

SKYbrary Partners:

Safety knowledge contributed by: